Time;durP1;ratioP1;P1;durP2;ratioP2;P2;SDS_P1;SDS_P2;PMS_P1;PMS_P2;Temp;Humidity;BMP_temperature;BMP_pressure;BME280_temperature;BME280_humidity;BME280_pressure;Samples;Min_cycle;Max_cycle;Signal;HPM_P1;HPM_P2
2022/11/08 00:02:02;;;;;;;9.20;4.65;;;;;;;5.90;100.00;95824.69;5095446;28;24429;-70
2022/11/08 00:04:29;;;;;;;9.00;4.53;;;;;;;5.77;100.00;95820.06;5099606;28;24481;-70
2022/11/08 00:15:09;;;;;;;5.47;3.28;;;;;;;5.53;100.00;95816.00;5091202;28;24471;-70
2022/11/08 00:17:37;;;;;;;7.03;2.85;;;;;;;5.34;100.00;95815.94;5105048;28;24436;-70
2022/11/08 00:20:04;;;;;;;6.60;3.00;;;;;;;5.22;100.00;95813.84;5104084;28;24437;-70
2022/11/08 00:22:31;;;;;;;4.90;2.58;;;;;;;5.26;100.00;95811.06;5098364;28;24537;-70
2022/11/08 00:24:57;;;;;;;5.00;2.70;;;;;;;5.41;100.00;95806.19;5099931;28;24479;-70
2022/11/08 00:27:25;;;;;;;4.50;3.00;;;;;;;5.45;100.00;95800.91;5100842;28;24795;-71
2022/11/08 00:29:51;;;;;;;7.85;2.80;;;;;;;5.19;100.00;95807.13;5107171;28;24805;-68
2022/11/08 00:32:20;;;;;;;4.47;3.05;;;;;;;5.31;100.00;95803.19;5106060;28;24436;-70
2022/11/08 00:34:48;;;;;;;5.38;3.20;;;;;;;5.24;100.00;95805.19;5101195;28;24454;-71
2022/11/08 00:37:15;;;;;;;3.90;2.77;;;;;;;5.12;100.00;95809.97;5106807;28;25008;-70
2022/11/08 00:39:42;;;;;;;4.78;2.70;;;;;;;5.16;100.00;95804.66;5102186;28;24433;-70
2022/11/08 00:42:09;;;;;;;5.05;2.95;;;;;;;5.17;100.00;95803.75;5098016;28;24430;-70
2022/11/08 00:44:36;;;;;;;5.10;3.10;;;;;;;5.16;100.00;95801.28;5103539;28;24458;-70
2022/11/08 00:47:02;;;;;;;3.13;2.65;;;;;;;5.02;100.00;95801.81;5101194;28;24437;-70
2022/11/08 00:49:29;;;;;;;6.40;3.00;;;;;;;4.87;100.00;95799.88;5105222;28;24444;-70
2022/11/08 00:51:57;;;;;;;5.50;2.90;;;;;;;4.97;100.00;95798.59;5106998;28;24466;-70
2022/11/08 00:54:24;;;;;;;4.05;2.67;;;;;;;5.12;100.00;95794.56;5099964;28;24436;-69
2022/11/08 00:56:51;;;;;;;3.17;2.30;;;;;;;5.21;100.00;95796.78;5104485;28;24434;-69
2022/11/08 00:59:19;;;;;;;5.05;2.55;;;;;;;5.25;100.00;95788.03;5103147;28;24445;-69
2022/11/08 01:01:46;;;;;;;2.92;2.30;;;;;;;5.31;100.00;95780.09;5104188;28;24440;-70
2022/11/08 01:04:15;;;;;;;2.90;2.22;;;;;;;5.34;100.00;95782.53;5089958;28;24450;-70
2022/11/08 01:06:42;;;;;;;5.60;2.80;;;;;;;5.28;100.00;95775.91;5095147;28;25243;-70
2022/11/08 01:09:10;;;;;;;6.22;2.80;;;;;;;5.22;100.00;95775.31;5103962;28;24983;-70
2022/11/08 01:11:38;;;;;;;21.77;3.13;;;;;;;4.84;100.00;95773.44;5098895;28;25000;-71
2022/11/08 01:14:04;;;;;;;12.57;2.90;;;;;;;4.64;100.00;95778.53;5104871;28;24451;-70
2022/11/08 01:16:33;;;;;;;10.07;2.70;;;;;;;4.63;100.00;95774.28;5101064;28;24448;-70
2022/11/08 01:19:01;;;;;;;14.73;2.63;;;;;;;4.66;100.00;95781.03;5105029;28;24434;-70
2022/11/08 01:21:28;;;;;;;22.83;3.10;;;;;;;4.50;100.00;95793.63;5106287;28;24436;-70
2022/11/08 01:23:55;;;;;;;10.73;3.05;;;;;;;4.50;100.00;95788.50;5096444;28;24491;-70
2022/11/08 01:26:25;;;;;;;4.20;2.10;;;;;;;4.68;100.00;95780.06;5102436;28;24433;-70
2022/11/08 01:28:52;;;;;;;5.25;2.63;;;;;;;4.77;100.00;95766.88;5102221;28;24433;-70
2022/11/08 01:31:21;;;;;;;17.60;2.80;;;;;;;4.73;100.00;95769.63;5102886;28;24441;-70
2022/11/08 01:33:48;;;;;;;4.15;2.35;;;;;;;4.85;100.00;95769.13;5103888;28;24432;-70
2022/11/08 01:36:17;;;;;;;3.08;2.35;;;;;;;4.95;100.00;95770.44;5104058;28;24437;-70
2022/11/08 01:38:43;;;;;;;7.85;2.50;;;;;;;5.01;100.00;95754.78;5105994;28;25036;-71
2022/11/08 01:41:12;;;;;;;13.55;2.67;;;;;;;5.02;100.00;95753.06;5092184;28;24439;-69
2022/11/08 01:43:44;;;;;;;6.82;2.20;;;;;;;5.03;100.00;95750.41;5092537;28;24446;-69
2022/11/08 01:46:32;;;;;;;31.75;2.67;;;;;;;5.02;100.00;95740.22;5095568;28;24445;-70
2022/11/08 01:49:16;;;;;;;13.43;2.30;;;;;;;4.99;100.00;95741.16;5087950;28;24446;-70
2022/11/08 01:51:46;;;;;;;14.27;2.65;;;;;;;4.79;100.00;95744.56;5099031;28;24426;-70
2022/11/08 01:54:17;;;;;;;11.82;2.42;;;;;;;4.61;100.00;95740.16;5109317;28;24436;-70
2022/11/08 01:56:44;;;;;;;15.15;2.63;;;;;;;4.69;100.00;95743.25;5098090;28;24613;-70
2022/11/08 01:59:15;;;;;;;3.17;2.20;;;;;;;4.78;100.00;95736.91;5084497;28;24496;-70
2022/11/08 02:01:42;;;;;;;4.53;2.15;;;;;;;4.83;100.00;95727.31;5097811;28;24461;-70
2022/11/08 02:04:09;;;;;;;3.28;2.28;;;;;;;4.77;100.00;95736.09;5080746;28;24453;-70
2022/11/08 02:06:38;;;;;;;3.38;2.28;;;;;;;4.84;100.00;95727.25;5089904;28;24553;-70
2022/11/08 02:09:08;;;;;;;2.50;2.00;;;;;;;4.71;100.00;95727.78;5103949;28;24466;-70
2022/11/08 02:11:36;;;;;;;3.70;2.05;;;;;;;4.54;100.00;95715.66;5100550;28;24456;-70
2022/11/08 02:14:04;;;;;;;3.75;2.30;;;;;;;4.52;100.00;95713.13;5100989;28;24444;-70
2022/11/08 02:16:31;;;;;;;2.65;1.98;;;;;;;4.60;100.00;95716.25;5105581;28;25009;-70
2022/11/08 02:18:58;;;;;;;3.67;2.03;;;;;;;4.69;100.00;95714.22;5102032;28;25198;-70
2022/11/08 02:21:30;;;;;;;2.90;2.33;;;;;;;4.68;100.00;95709.97;5103220;28;24448;-69
2022/11/08 02:24:00;;;;;;;3.30;2.23;;;;;;;4.54;100.00;95710.53;5101124;28;24461;-70
2022/11/08 02:26:31;;;;;;;3.90;2.83;;;;;;;4.35;100.00;95708.69;5099297;28;24430;-70
2022/11/08 02:28:58;;;;;;;3.38;2.85;;;;;;;4.17;100.00;95698.31;5105723;28;24756;-71
2022/11/08 02:31:25;;;;;;;3.10;2.50;;;;;;;4.00;100.00;95704.91;5100191;28;24430;-70
2022/11/08 02:33:51;;;;;;;3.50;2.53;;;;;;;3.97;100.00;95693.94;5100793;28;24433;-70
2022/11/08 02:36:21;;;;;;;2.78;2.22;;;;;;;3.90;100.00;95697.66;5102259;28;25024;-70
2022/11/08 02:38:52;;;;;;;2.65;2.40;;;;;;;3.83;100.00;95702.19;5098450;28;24996;-70
2022/11/08 02:41:20;;;;;;;2.25;2.05;;;;;;;3.77;100.00;95700.66;5100355;28;24438;-70
2022/11/08 02:43:47;;;;;;;2.95;2.33;;;;;;;3.78;100.00;95691.25;5098973;28;24454;-70
2022/11/08 02:46:13;;;;;;;4.03;2.23;;;;;;;3.70;100.00;95694.09;5105895;28;24462;-70
2022/11/08 02:48:40;;;;;;;2.87;2.20;;;;;;;3.91;100.00;95692.47;5106305;28;24453;-69
2022/11/08 02:51:06;;;;;;;2.80;2.47;;;;;;;3.85;100.00;95683.28;5095490;28;24440;-69
2022/11/08 02:53:33;;;;;;;5.95;2.30;;;;;;;3.88;100.00;95683.16;5096812;28;24434;-69
2022/11/08 02:55:59;;;;;;;4.25;2.30;;;;;;;3.78;100.00;95686.13;5107318;28;24800;-70
2022/11/08 02:58:27;;;;;;;2.72;2.28;;;;;;;3.72;100.00;95681.25;5101330;28;24434;-70
2022/11/08 03:00:54;;;;;;;3.20;2.40;;;;;;;3.71;100.00;95679.56;5091837;28;24478;-70
2022/11/08 03:03:20;;;;;;;2.70;2.40;;;;;;;3.64;100.00;95687.50;5100176;28;24448;-70
2022/11/08 03:05:47;;;;;;;2.88;2.20;;;;;;;3.69;100.00;95689.88;5095133;28;24457;-70
2022/11/08 03:08:14;;;;;;;2.47;2.15;;;;;;;3.66;100.00;95684.84;5099548;28;24487;-70
2022/11/08 03:10:40;;;;;;;2.00;1.80;;;;;;;3.72;100.00;95674.38;5085792;28;24434;-70
2022/11/08 03:13:07;;;;;;;2.97;2.00;;;;;;;3.62;100.00;95680.75;5094419;28;24441;-70
2022/11/08 03:15:35;;;;;;;4.10;2.03;;;;;;;3.64;100.00;95677.25;5091245;28;24483;-69
2022/11/08 03:18:02;;;;;;;2.83;1.92;;;;;;;3.76;100.00;95680.25;5099385;28;24441;-70
2022/11/08 03:20:28;;;;;;;4.87;1.80;;;;;;;3.83;100.00;95686.81;5088476;28;24684;-70
2022/11/08 03:22:58;;;;;;;2.17;1.90;;;;;;;3.87;100.00;95690.91;5097453;28;24439;-70
2022/11/08 03:25:25;;;;;;;3.20;2.03;;;;;;;3.84;100.00;95694.41;5100669;28;24454;-70
2022/11/08 03:27:51;;;;;;;2.67;1.90;;;;;;;3.79;100.00;95687.81;5094300;28;24433;-70
2022/11/08 03:30:18;;;;;;;5.60;2.05;;;;;;;3.83;100.00;95687.63;5094413;28;24445;-70
2022/11/08 03:32:46;;;;;;;2.72;1.80;;;;;;;3.91;100.00;95689.91;5087751;28;24808;-70
2022/11/08 03:35:13;;;;;;;2.53;1.87;;;;;;;3.67;100.00;95690.81;5097202;28;24556;-70
2022/11/08 03:37:39;;;;;;;3.88;2.03;;;;;;;3.66;100.00;95689.97;5098444;28;24819;-69
2022/11/08 03:40:07;;;;;;;3.10;1.95;;;;;;;3.61;100.00;95679.09;5102533;28;25022;-69
2022/11/08 03:42:34;;;;;;;2.42;2.10;;;;;;;3.54;100.00;95683.59;5105095;28;24452;-70
2022/11/08 03:45:00;;;;;;;2.30;2.10;;;;;;;3.46;100.00;95690.72;5106154;28;24441;-70
2022/11/08 03:47:27;;;;;;;3.05;2.75;;;;;;;3.44;100.00;95686.53;5110001;28;24441;-70
2022/11/08 03:49:55;;;;;;;3.42;2.65;;;;;;;3.35;100.00;95690.28;5105678;28;24441;-69
2022/11/08 03:52:21;;;;;;;3.60;3.10;;;;;;;3.31;100.00;95679.31;5105078;28;25010;-70
2022/11/08 03:54:48;;;;;;;3.88;2.95;;;;;;;3.28;100.00;95683.69;5094637;28;24427;-70
2022/11/08 03:57:14;;;;;;;3.47;2.78;;;;;;;3.34;100.00;95684.31;5096090;28;24835;-69
2022/11/08 03:59:41;;;;;;;4.10;2.87;;;;;;;3.42;100.00;95678.09;5087876;28;24524;-69
2022/11/08 04:02:07;;;;;;;5.47;3.47;;;;;;;3.38;100.00;95685.03;5101231;28;24426;-70
2022/11/08 04:04:34;;;;;;;4.38;3.15;;;;;;;3.41;100.00;95674.66;5104806;28;24464;-69
2022/11/08 04:07:02;;;;;;;7.15;4.15;;;;;;;3.38;100.00;95669.69;5102888;28;24811;-69
2022/11/08 04:09:28;;;;;;;5.72;3.13;;;;;;;3.41;100.00;95669.53;5102392;28;24445;-69
2022/11/08 04:21:17;;;;;;;4.10;2.63;;;;;;;3.62;100.00;95665.38;5084437;28;25269;-71
2022/11/08 04:22:58;;;;;;;3.77;2.53;;;;;;;3.68;100.00;95662.59;5071383;28;24431;-70
2022/11/08 04:25:24;;;;;;;3.53;2.25;;;;;;;3.70;100.00;95657.41;5102252;28;24990;-71
2022/11/08 04:27:51;;;;;;;2.58;2.30;;;;;;;3.72;100.00;95655.63;5099656;28;24879;-70
2022/11/08 04:30:17;;;;;;;2.85;1.90;;;;;;;3.78;100.00;95652.81;5094314;28;24445;-70
2022/11/08 04:32:44;;;;;;;2.65;1.80;;;;;;;3.82;100.00;95649.25;5090609;28;25019;-70
2022/11/08 04:35:10;;;;;;;2.90;1.80;;;;;;;3.83;100.00;95650.94;5093449;28;24432;-69
2022/11/08 04:37:37;;;;;;;5.30;2.43;;;;;;;3.85;100.00;95652.53;5100564;28;24464;-69
2022/11/08 04:40:06;;;;;;;3.55;2.33;;;;;;;3.86;100.00;95651.66;5100359;28;25021;-69
2022/11/08 04:42:32;;;;;;;5.28;3.22;;;;;;;3.77;100.00;95646.03;5091537;28;24805;-70
2022/11/08 04:44:59;;;;;;;5.55;4.00;;;;;;;3.80;100.00;95635.69;5098622;28;24450;-69
2022/11/08 04:47:27;;;;;;;6.30;4.53;;;;;;;3.79;100.00;95631.47;5105019;28;24440;-69
2022/11/08 04:49:54;;;;;;;5.85;4.13;;;;;;;3.79;100.00;95634.03;5101481;28;24441;-69
2022/11/08 04:52:20;;;;;;;4.05;3.15;;;;;;;3.86;100.00;95633.72;5105813;28;24545;-69
2022/11/08 04:54:47;;;;;;;3.88;2.50;;;;;;;3.68;100.00;95631.03;5100004;28;24968;-69
2022/11/08 04:57:15;;;;;;;3.42;2.13;;;;;;;3.79;100.00;95624.59;5095319;28;24430;-70
2022/11/08 04:59:42;;;;;;;1.90;1.60;;;;;;;3.87;100.00;95625.13;5097484;28;24483;-70
2022/11/08 05:02:08;;;;;;;3.58;2.60;;;;;;;3.80;100.00;95620.31;5089348;28;25021;-70
2022/11/08 05:04:35;;;;;;;2.95;2.53;;;;;;;3.62;100.00;95620.09;5081749;28;24454;-69
2022/11/08 05:07:01;;;;;;;4.85;3.17;;;;;;;3.62;100.00;95616.72;5089902;28;24434;-70
2022/11/08 05:09:28;;;;;;;6.60;5.57;;;;;;;3.55;100.00;95613.53;5094670;28;24457;-69
2022/11/08 05:11:54;;;;;;;7.10;4.57;;;;;;;3.42;100.00;95614.91;5077979;28;24430;-69
2022/11/08 05:14:22;;;;;;;2.58;2.33;;;;;;;3.18;100.00;95615.81;5089054;28;24441;-70
2022/11/08 05:16:48;;;;;;;4.70;1.80;;;;;;;3.22;100.00;95615.63;5098080;28;24430;-71
2022/11/08 05:23:22;;;;;;;2.40;2.10;;;;;;;3.38;100.00;95609.06;5106042;28;24529;-71
2022/11/08 05:24:46;;;;;;;3.28;2.50;;;;;;;3.13;100.00;95614.25;5097126;28;24453;-70
2022/11/08 05:27:12;;;;;;;2.13;1.90;;;;;;;2.91;100.00;95616.72;5081655;28;24433;-70
2022/11/08 05:29:40;;;;;;;2.65;2.28;;;;;;;2.87;100.00;95609.22;5088522;28;24990;-70
2022/11/08 05:32:07;;;;;;;5.38;2.50;;;;;;;2.91;100.00;95615.91;5095410;28;24433;-70
2022/11/08 05:34:33;;;;;;;6.10;2.53;;;;;;;2.93;100.00;95616.69;5097818;28;24436;-70
2022/11/08 05:37:00;;;;;;;4.45;2.72;;;;;;;2.87;100.00;95617.72;5087529;28;25026;-70
2022/11/08 05:39:26;;;;;;;4.45;2.50;;;;;;;2.92;100.00;95617.56;5084502;28;24438;-71
2022/11/08 05:41:53;;;;;;;4.63;2.40;;;;;;;3.00;100.00;95622.41;5088511;28;24458;-71
2022/11/08 05:44:19;;;;;;;3.03;2.10;;;;;;;3.02;100.00;95606.13;5085705;28;24449;-71
2022/11/08 05:46:47;;;;;;;2.30;2.03;;;;;;;2.91;100.00;95605.66;5087434;28;24438;-71
2022/11/08 05:49:14;;;;;;;2.80;2.20;;;;;;;3.04;100.00;95600.94;5095466;28;24437;-71
2022/11/08 05:51:40;;;;;;;3.33;2.10;;;;;;;3.05;100.00;95603.47;5091246;28;24478;-71
2022/11/08 05:54:07;;;;;;;2.70;1.67;;;;;;;3.12;100.00;95599.78;5081815;28;24431;-71
2022/11/08 05:56:34;;;;;;;2.85;1.80;;;;;;;3.15;100.00;95612.47;5097062;28;24836;-71
2022/11/08 05:59:00;;;;;;;2.75;2.38;;;;;;;3.16;100.00;95600.53;5107031;28;24456;-70
2022/11/08 06:01:27;;;;;;;6.10;2.80;;;;;;;3.06;100.00;95599.19;5096580;28;25029;-71
2022/11/08 06:03:55;;;;;;;3.80;2.57;;;;;;;3.16;100.00;95592.84;5099213;28;24434;-71
2022/11/08 06:06:22;;;;;;;3.58;2.58;;;;;;;3.06;100.00;95591.50;5102147;28;24453;-71
2022/11/08 06:08:50;;;;;;;4.72;2.85;;;;;;;3.04;100.00;95596.69;5105759;28;24444;-70
2022/11/08 06:11:20;;;;;;;3.05;2.10;;;;;;;3.07;100.00;95595.72;5100190;28;24442;-71
2022/11/08 06:13:47;;;;;;;2.67;2.08;;;;;;;3.10;100.00;95593.88;5092378;28;24816;-71
2022/11/08 06:16:15;;;;;;;2.50;1.85;;;;;;;3.08;100.00;95598.25;5100865;28;24508;-71
2022/11/08 06:18:42;;;;;;;5.43;1.95;;;;;;;3.01;100.00;95595.97;5094463;28;24449;-70
2022/11/08 06:21:13;;;;;;;2.13;1.80;;;;;;;3.10;100.00;95599.00;5100880;28;24441;-71
2022/11/08 06:23:41;;;;;;;8.80;2.38;;;;;;;2.76;100.00;95593.44;5092559;28;24792;-71
2022/11/08 06:26:07;;;;;;;3.13;1.73;;;;;;;2.69;100.00;95590.25;5094604;28;24484;-71
2022/11/08 06:28:35;;;;;;;4.03;1.65;;;;;;;2.57;100.00;95599.19;5076900;28;24997;-71
2022/11/08 06:31:02;;;;;;;1.88;1.42;;;;;;;2.58;100.00;95585.50;5099553;28;24425;-71
2022/11/08 06:33:29;;;;;;;3.38;1.73;;;;;;;2.52;100.00;95597.66;5091259;28;24449;-72
2022/11/08 06:35:56;;;;;;;2.40;1.63;;;;;;;2.56;100.00;95601.75;5100672;28;24433;-72
2022/11/08 06:38:24;;;;;;;1.95;1.42;;;;;;;2.60;100.00;95609.31;5104501;28;24434;-71
2022/11/08 06:40:50;;;;;;;3.23;1.40;;;;;;;2.77;100.00;95601.03;5103050;28;24431;-71
2022/11/08 06:43:17;;;;;;;5.57;2.77;;;;;;;2.70;100.00;95604.69;5099667;28;24800;-71
2022/11/08 06:45:43;;;;;;;3.25;2.63;;;;;;;2.78;100.00;95607.84;5096627;28;24457;-71
2022/11/08 06:48:10;;;;;;;4.70;3.50;;;;;;;2.86;100.00;95600.72;5090713;28;24438;-73
2022/11/08 06:50:36;;;;;;;3.10;2.28;;;;;;;2.96;100.00;95613.19;5095232;28;24448;-71
2022/11/08 06:53:05;;;;;;;2.70;2.10;;;;;;;3.10;100.00;95609.22;5087603;28;24436;-72
2022/11/08 06:55:34;;;;;;;10.05;3.97;;;;;;;3.17;100.00;95619.25;5085370;28;24431;-72
2022/11/08 06:58:01;;;;;;;15.63;8.70;;;;;;;3.27;100.00;95621.44;5096483;28;24429;-71
2022/11/08 07:00:28;;;;;;;21.85;13.80;;;;;;;3.46;100.00;95615.63;5110308;28;24445;-72
2022/11/08 07:02:55;;;;;;;9.83;6.43;;;;;;;3.53;100.00;95623.03;5096414;28;24470;-71
2022/11/08 07:05:22;;;;;;;3.43;2.93;;;;;;;3.73;100.00;95611.19;5090063;28;24536;-71
2022/11/08 07:07:50;;;;;;;4.93;2.30;;;;;;;3.85;100.00;95613.25;5106022;28;24979;-71
2022/11/08 07:10:17;;;;;;;5.25;2.92;;;;;;;4.02;100.00;95610.06;5090774;28;25007;-72
2022/11/08 07:12:45;;;;;;;3.43;1.80;;;;;;;4.11;100.00;95604.56;5095717;28;25041;-70
2022/11/08 07:15:12;;;;;;;4.03;2.35;;;;;;;4.13;100.00;95608.72;5099016;28;24437;-70
2022/11/08 07:17:38;;;;;;;13.35;8.10;;;;;;;4.09;100.00;95607.19;5107859;28;24992;-70
2022/11/08 07:20:07;;;;;;;11.30;7.75;;;;;;;4.21;100.00;95605.84;5104461;28;24443;-70
2022/11/08 07:22:33;;;;;;;13.32;7.93;;;;;;;4.31;100.00;95589.22;5102513;28;24444;-70
2022/11/08 07:25:00;;;;;;;6.80;4.50;;;;;;;4.23;100.00;95591.25;5103351;28;25002;-70
2022/11/08 07:27:27;;;;;;;9.75;4.90;;;;;;;4.15;100.00;95590.72;5103762;28;24521;-69
2022/11/08 07:29:55;;;;;;;9.95;4.38;;;;;;;4.10;100.00;95585.78;5110466;28;24433;-70
2022/11/08 07:32:22;;;;;;;5.10;3.38;;;;;;;4.25;100.00;95586.06;5103181;28;24438;-70
2022/11/08 07:34:48;;;;;;;4.40;2.78;;;;;;;4.48;100.00;95578.25;5102194;28;24445;-70
2022/11/08 07:37:15;;;;;;;5.03;2.20;;;;;;;4.84;100.00;95580.16;5104256;28;24468;-70
2022/11/08 07:39:41;;;;;;;3.35;2.33;;;;;;;5.17;100.00;95587.28;5100008;28;24449;-70
2022/11/08 07:42:08;;;;;;;6.93;4.13;;;;;;;5.44;100.00;95587.75;5098710;28;24444;-70
2022/11/08 07:44:34;;;;;;;5.63;4.05;;;;;;;5.73;100.00;95591.56;5095137;28;24426;-70
2022/11/08 07:47:02;;;;;;;8.97;3.87;;;;;;;5.90;100.00;95594.19;5099404;28;24989;-70
2022/11/08 07:49:29;;;;;;;4.78;3.25;;;;;;;6.17;100.00;95593.81;5096172;28;24453;-70
2022/11/08 07:51:55;;;;;;;4.65;2.63;;;;;;;6.46;100.00;95602.69;5107625;28;24433;-70
2022/11/08 07:54:22;;;;;;;3.83;2.22;;;;;;;6.49;100.00;95605.09;5095446;28;24452;-71
2022/11/08 07:56:48;;;;;;;4.38;2.28;;;;;;;6.32;100.00;95605.09;5092876;28;24441;-70
2022/11/08 07:59:15;;;;;;;3.85;2.83;;;;;;;6.58;100.00;95598.66;5086548;28;24438;-70
2022/11/08 08:01:42;;;;;;;3.33;2.33;;;;;;;6.57;100.00;95597.84;5105789;28;24441;-70
2022/11/08 08:04:11;;;;;;;4.32;2.55;;;;;;;6.46;100.00;95597.53;5097326;28;24440;-71
2022/11/08 08:06:37;;;;;;;6.40;2.50;;;;;;;6.30;100.00;95598.28;5089511;28;24884;-71
2022/11/08 08:09:04;;;;;;;2.53;1.90;;;;;;;6.40;100.00;95598.66;5093380;28;24435;-70
2022/11/08 08:11:30;;;;;;;3.63;2.30;;;;;;;6.36;100.00;95607.44;5088155;28;24438;-70
2022/11/08 08:13:57;;;;;;;3.55;2.20;;;;;;;6.43;100.00;95606.22;5093330;28;24433;-70
2022/11/08 08:16:23;;;;;;;4.00;2.30;;;;;;;6.22;100.00;95602.13;5103533;28;24436;-71
2022/11/08 08:18:50;;;;;;;5.25;2.00;;;;;;;6.17;100.00;95601.53;5108314;28;24438;-70
2022/11/08 08:21:18;;;;;;;2.87;2.00;;;;;;;6.15;100.00;95599.00;5101031;28;24441;-70
2022/11/08 08:23:45;;;;;;;5.65;3.10;;;;;;;6.18;100.00;95598.03;5099122;28;24440;-70
2022/11/08 08:26:11;;;;;;;4.13;2.28;;;;;;;6.17;100.00;95596.38;5105967;28;24472;-70
2022/11/08 08:28:38;;;;;;;3.78;2.30;;;;;;;6.25;100.00;95597.66;5101399;28;24429;-70
2022/11/08 08:31:05;;;;;;;4.30;1.98;;;;;;;6.32;100.00;95600.78;5099266;28;24994;-70
2022/11/08 08:33:32;;;;;;;3.50;2.60;;;;;;;6.30;100.00;95602.56;5091912;28;24441;-71
2022/11/08 08:35:59;;;;;;;3.85;2.63;;;;;;;6.37;100.00;95603.13;5105947;28;24978;-71
2022/11/08 08:38:27;;;;;;;2.88;2.25;;;;;;;6.51;100.00;95606.69;5101365;28;24436;-71
2022/11/08 08:40:54;;;;;;;3.30;2.15;;;;;;;6.60;100.00;95607.13;5099555;28;24448;-70
2022/11/08 08:43:20;;;;;;;3.30;1.80;;;;;;;6.73;100.00;95609.00;5101151;28;25015;-70
2022/11/08 08:45:47;;;;;;;2.60;1.70;;;;;;;6.91;100.00;95614.16;5104488;28;24462;-71
2022/11/08 08:48:14;;;;;;;3.90;2.00;;;;;;;6.98;100.00;95616.34;5104543;28;24438;-71
2022/11/08 08:50:41;;;;;;;4.10;2.85;;;;;;;7.04;100.00;95620.31;5097078;28;24831;-71
2022/11/08 08:53:07;;;;;;;14.32;4.32;;;;;;;7.19;100.00;95618.69;5085340;28;24524;-71
2022/11/08 08:55:35;;;;;;;4.90;3.05;;;;;;;7.26;100.00;95618.31;5104774;28;20801;-70
2022/11/08 08:58:02;;;;;;;8.60;5.82;;;;;;;7.34;100.00;95617.94;5102228;28;24445;-70
2022/11/08 09:00:29;;;;;;;4.65;2.33;;;;;;;7.54;100.00;95624.59;5096965;28;24438;-71
2022/11/08 09:02:55;;;;;;;2.97;2.20;;;;;;;7.65;100.00;95624.03;5092816;28;24434;-70
2022/11/08 09:05:21;;;;;;;3.20;1.98;;;;;;;7.75;100.00;95612.31;5079953;28;24457;-71
2022/11/08 09:07:48;;;;;;;3.00;1.90;;;;;;;7.80;100.00;95615.47;5090727;28;20775;-70
2022/11/08 09:10:15;;;;;;;2.45;1.98;;;;;;;7.87;100.00;95627.13;5096069;28;24444;-71
2022/11/08 09:12:42;;;;;;;11.48;5.15;;;;;;;7.84;100.00;95616.97;5092910;28;20807;-71
2022/11/08 09:15:10;;;;;;;7.00;5.03;;;;;;;7.83;100.00;95622.22;5097588;28;20762;-71
2022/11/08 09:17:36;;;;;;;4.57;3.20;;;;;;;7.80;100.00;95628.34;5105345;28;24444;-71
2022/11/08 09:20:03;;;;;;;10.75;2.90;;;;;;;7.84;100.00;95627.28;5104199;28;21339;-70
2022/11/08 09:22:32;;;;;;;8.85;3.45;;;;;;;8.02;100.00;95624.63;5106048;28;21383;-71
2022/11/08 09:24:59;;;;;;;3.03;2.20;;;;;;;8.26;100.00;95625.81;5097057;28;20721;-71
2022/11/08 09:27:27;;;;;;;3.60;2.60;;;;;;;8.20;100.00;95632.16;5105105;28;21353;-71
2022/11/08 09:29:55;;;;;;;3.58;2.10;;;;;;;8.28;100.00;95636.91;5100180;28;20770;-71
2022/11/08 09:32:23;;;;;;;5.07;3.35;;;;;;;8.23;100.00;95641.47;5101690;28;21364;-70
2022/11/08 09:34:50;;;;;;;4.80;3.10;;;;;;;8.14;100.00;95636.81;5099480;28;20831;-70
2022/11/08 09:37:17;;;;;;;6.75;4.18;;;;;;;8.10;100.00;95633.59;5103027;28;20785;-71
2022/11/08 09:39:43;;;;;;;4.60;2.60;;;;;;;8.11;100.00;95631.84;5096645;28;24443;-71
2022/11/08 09:42:27;;;;;;;7.17;2.77;;;;;;;8.14;100.00;95634.25;5104791;28;20865;-71
2022/11/08 09:45:29;;;;;;;2.67;2.38;;;;;;;8.41;100.00;95634.47;5098234;28;20754;-71
2022/11/08 09:47:59;;;;;;;2.67;1.88;;;;;;;8.59;100.00;95630.84;5090728;28;21212;-71
2022/11/08 09:50:35;;;;;;;4.13;2.22;;;;;;;8.60;100.00;95635.13;5093214;28;24890;-71
2022/11/08 09:53:22;;;;;;;7.70;4.07;;;;;;;8.61;100.00;95631.63;5094231;28;24988;-72
2022/11/08 09:55:54;;;;;;;8.68;3.78;;;;;;;8.75;100.00;95629.97;5094954;28;21322;-71
2022/11/08 09:58:33;;;;;;;6.22;3.50;;;;;;;8.83;100.00;95632.97;5081931;28;20695;-70
2022/11/08 10:01:00;;;;;;;4.57;2.80;;;;;;;8.86;100.00;95627.59;5090124;28;20667;-71
2022/11/08 10:03:29;;;;;;;5.88;2.42;;;;;;;9.01;100.00;95624.16;5098031;28;25001;-70
2022/11/08 10:06:21;;;;;;;2.50;2.17;;;;;;;9.24;100.00;95614.19;5092194;28;21490;-71
2022/11/08 10:08:59;;;;;;;4.03;2.50;;;;;;;9.67;100.00;95614.97;5099830;28;20735;-71
2022/11/08 10:11:42;;;;;;;4.95;2.50;;;;;;;10.10;100.00;95609.72;5090420;28;20791;-71
2022/11/08 10:14:25;;;;;;;3.97;1.98;;;;;;;10.40;100.00;95614.72;5091611;28;24434;-71
2022/11/08 10:17:08;;;;;;;3.40;2.17;;;;;;;10.39;100.00;95605.31;5099211;28;24437;-71
2022/11/08 10:19:50;;;;;;;3.20;2.10;;;;;;;10.41;100.00;95606.03;5101504;28;24800;-71
2022/11/08 10:22:25;;;;;;;5.05;2.45;;;;;;;10.59;100.00;95612.59;5105301;28;24441;-70
2022/11/08 10:24:57;;;;;;;3.50;2.92;;;;;;;10.46;100.00;95616.94;5095207;28;24441;-70
2022/11/08 10:27:33;;;;;;;5.60;3.30;;;;;;;10.57;100.00;95618.84;5104317;28;24809;-70
2022/11/08 10:30:04;;;;;;;6.03;2.90;;;;;;;10.90;100.00;95619.19;5097919;28;24473;-70
2022/11/08 10:32:32;;;;;;;7.75;2.92;;;;;;;11.03;100.00;95618.38;5088894;28;24438;-71
2022/11/08 10:35:08;;;;;;;6.10;2.63;;;;;;;11.28;100.00;95622.75;5099948;28;24429;-70
2022/11/08 10:37:35;;;;;;;4.20;2.03;;;;;;;11.65;100.00;95612.44;5103719;28;24434;-71
2022/11/08 10:40:13;;;;;;;4.22;2.20;;;;;;;11.77;100.00;95603.78;5109396;28;24441;-70
2022/11/08 10:42:44;;;;;;;4.63;2.45;;;;;;;11.60;100.00;95602.34;5103017;28;25029;-71
2022/11/08 10:45:11;;;;;;;5.87;3.47;;;;;;;11.58;100.00;95596.47;5104836;28;25017;-70
2022/11/08 10:47:39;;;;;;;5.67;3.33;;;;;;;11.66;100.00;95591.56;5104354;28;25040;-71
2022/11/08 10:50:13;;;;;;;7.55;3.88;;;;;;;11.62;100.00;95592.72;5099583;28;24498;-70
2022/11/08 10:52:45;;;;;;;6.65;3.58;;;;;;;11.59;100.00;95590.34;5104656;28;24437;-71
2022/11/08 10:55:24;;;;;;;5.93;3.47;;;;;;;11.58;100.00;95593.88;5099635;28;25056;-71
2022/11/08 10:57:51;;;;;;;3.83;2.65;;;;;;;11.61;100.00;95593.66;5101920;28;24444;-71
2022/11/08 11:00:27;;;;;;;3.50;2.43;;;;;;;11.63;100.00;95582.22;5095541;28;24444;-71
2022/11/08 11:02:55;;;;;;;6.25;2.10;;;;;;;11.74;100.00;95578.88;5090338;28;24429;-71
2022/11/08 11:05:33;;;;;;;3.30;1.73;;;;;;;12.04;100.00;95569.88;5104813;28;24429;-71
2022/11/08 11:08:14;;;;;;;2.83;1.63;;;;;;;12.04;100.00;95570.72;5098115;28;24437;-71
2022/11/08 11:10:42;;;;;;;4.97;1.70;;;;;;;12.14;100.00;95575.25;5090714;28;24454;-72
2022/11/08 11:13:12;;;;;;;3.35;1.73;;;;;;;12.45;100.00;95564.28;5102069;28;24441;-71
2022/11/08 11:15:44;;;;;;;2.90;1.70;;;;;;;12.48;100.00;95571.03;5088956;28;24431;-71
2022/11/08 11:18:21;;;;;;;3.83;1.85;;;;;;;12.52;100.00;95564.66;5107220;28;24429;-71
2022/11/08 11:21:04;;;;;;;4.10;2.08;;;;;;;12.54;100.00;95573.19;5095206;28;24450;-71
2022/11/08 11:23:37;;;;;;;3.25;1.80;;;;;;;12.52;100.00;95568.09;5108137;28;24422;-71
2022/11/08 11:26:05;;;;;;;2.92;1.77;;;;;;;12.54;100.00;95574.00;5102132;28;24831;-71
2022/11/08 11:28:32;;;;;;;3.03;1.85;;;;;;;12.61;100.00;95561.41;5102822;28;24441;-71
2022/11/08 11:31:01;;;;;;;9.18;1.88;;;;;;;12.70;100.00;95567.69;5105172;28;24437;-71
2022/11/08 11:33:28;;;;;;;4.65;2.03;;;;;;;12.79;96.83;95566.97;5104844;28;24426;-70
2022/11/08 11:36:01;;;;;;;4.18;1.70;;;;;;;12.83;96.06;95563.22;5103082;28;24437;-70
2022/11/08 11:38:37;;;;;;;3.08;2.03;;;;;;;12.85;97.31;95561.31;5101755;28;24440;-70
2022/11/08 11:41:09;;;;;;;2.67;1.35;;;;;;;12.88;97.34;95561.09;5097996;28;24430;-70
2022/11/08 11:43:42;;;;;;;4.35;1.50;;;;;;;12.88;95.98;95565.47;5085624;28;24467;-71
2022/11/08 11:46:15;;;;;;;5.45;1.48;;;;;;;12.89;94.58;95565.34;5094075;28;24503;-70
2022/11/08 11:48:46;;;;;;;2.53;1.30;;;;;;;12.94;95.03;95565.00;5107918;28;24445;-70
2022/11/08 11:51:14;;;;;;;2.42;1.35;;;;;;;12.95;95.30;95556.28;5098424;28;24438;-70
2022/11/08 11:53:41;;;;;;;2.45;1.38;;;;;;;13.03;96.07;95556.53;5101697;28;24437;-70
2022/11/08 11:56:26;;;;;;;4.50;2.00;;;;;;;13.01;97.19;95555.78;5095331;28;24436;-70
2022/11/08 11:59:31;;;;;;;3.60;2.30;;;;;;;12.96;98.11;95555.31;5102147;28;24540;-70